sensor_id;sensor_type;location;lat;lon;timestamp;temperature;humidity
53962;DHT22;39868;53.398;6.564;2024-02-15T00:00:24;13.70;92.00
53962;DHT22;39868;53.398;6.564;2024-02-15T00:02:54;13.60;91.90
53962;DHT22;39868;53.398;6.564;2024-02-15T00:05:21;13.70;92.00
53962;DHT22;39868;53.398;6.564;2024-02-15T00:07:48;13.70;92.00
53962;DHT22;39868;53.398;6.564;2024-02-15T00:10:16;13.70;92.00
53962;DHT22;39868;53.398;6.564;2024-02-15T00:12:43;13.70;92.00
53962;DHT22;39868;53.398;6.564;2024-02-15T00:15:10;13.70;92.00
53962;DHT22;39868;53.398;6.564;2024-02-15T00:17:38;13.70;92.00
53962;DHT22;39868;53.398;6.564;2024-02-15T00:20:09;13.70;92.00
53962;DHT22;39868;53.398;6.564;2024-02-15T00:22:37;13.70;92.00
53962;DHT22;39868;53.398;6.564;2024-02-15T00:25:05;13.70;92.00
53962;DHT22;39868;53.398;6.564;2024-02-15T00:27:33;13.70;92.00
53962;DHT22;39868;53.398;6.564;2024-02-15T00:30:03;13.70;92.00
53962;DHT22;39868;53.398;6.564;2024-02-15T00:32:30;13.70;92.00
53962;DHT22;39868;53.398;6.564;2024-02-15T00:34:58;13.70;92.00
53962;DHT22;39868;53.398;6.564;2024-02-15T00:37:26;13.70;92.00
53962;DHT22;39868;53.398;6.564;2024-02-15T00:39:53;13.70;92.00
53962;DHT22;39868;53.398;6.564;2024-02-15T00:42:20;13.70;92.00
53962;DHT22;39868;53.398;6.564;2024-02-15T00:44:47;13.70;92.00
53962;DHT22;39868;53.398;6.564;2024-02-15T00:47:14;13.70;92.00
53962;DHT22;39868;53.398;6.564;2024-02-15T00:49:42;13.70;92.00
53962;DHT22;39868;53.398;6.564;2024-02-15T00:52:09;13.70;92.00
53962;DHT22;39868;53.398;6.564;2024-02-15T00:54:37;13.70;92.00
53962;DHT22;39868;53.398;6.564;2024-02-15T00:57:04;13.70;92.00
53962;DHT22;39868;53.398;6.564;2024-02-15T00:59:31;13.70;92.10
53962;DHT22;39868;53.398;6.564;2024-02-15T01:02:03;13.70;92.00
53962;DHT22;39868;53.398;6.564;2024-02-15T01:04:30;13.70;92.00
53962;DHT22;39868;53.398;6.564;2024-02-15T01:06:58;13.70;92.00
53962;DHT22;39868;53.398;6.564;2024-02-15T01:09:25;13.80;92.10
53962;DHT22;39868;53.398;6.564;2024-02-15T01:11:53;13.80;92.10
53962;DHT22;39868;53.398;6.564;2024-02-15T01:14:20;13.70;92.00
53962;DHT22;39868;53.398;6.564;2024-02-15T01:16:47;13.80;92.10
53962;DHT22;39868;53.398;6.564;2024-02-15T01:19:14;13.80;92.10
53962;DHT22;39868;53.398;6.564;2024-02-15T01:21:42;13.80;92.10
53962;DHT22;39868;53.398;6.564;2024-02-15T01:24:11;13.80;92.00
53962;DHT22;39868;53.398;6.564;2024-02-15T01:26:38;13.80;92.00
53962;DHT22;39868;53.398;6.564;2024-02-15T01:29:05;13.80;92.00
53962;DHT22;39868;53.398;6.564;2024-02-15T01:31:32;13.80;92.00
53962;DHT22;39868;53.398;6.564;2024-02-15T01:34:00;13.80;92.00
53962;DHT22;39868;53.398;6.564;2024-02-15T01:36:27;13.80;92.00
53962;DHT22;39868;53.398;6.564;2024-02-15T01:38:54;13.80;92.00
53962;DHT22;39868;53.398;6.564;2024-02-15T01:41:21;13.80;92.00
53962;DHT22;39868;53.398;6.564;2024-02-15T01:43:49;13.80;91.90
53962;DHT22;39868;53.398;6.564;2024-02-15T01:46:20;13.80;91.90
53962;DHT22;39868;53.398;6.564;2024-02-15T01:48:49;13.80;91.90
53962;DHT22;39868;53.398;6.564;2024-02-15T01:51:17;13.80;91.90
53962;DHT22;39868;53.398;6.564;2024-02-15T01:53:44;13.80;91.90
53962;DHT22;39868;53.398;6.564;2024-02-15T01:56:13;13.80;91.90
53962;DHT22;39868;53.398;6.564;2024-02-15T01:58:41;13.80;91.90
53962;DHT22;39868;53.398;6.564;2024-02-15T02:01:09;13.80;91.90
53962;DHT22;39868;53.398;6.564;2024-02-15T02:03:39;13.80;91.90
53962;DHT22;39868;53.398;6.564;2024-02-15T02:06:07;13.80;91.90
53962;DHT22;39868;53.398;6.564;2024-02-15T02:08:34;13.80;91.90
53962;DHT22;39868;53.398;6.564;2024-02-15T02:11:01;13.80;91.90
53962;DHT22;39868;53.398;6.564;2024-02-15T02:13:30;13.80;91.90
53962;DHT22;39868;53.398;6.564;2024-02-15T02:15:58;13.80;91.90
53962;DHT22;39868;53.398;6.564;2024-02-15T02:18:27;13.80;91.90
53962;DHT22;39868;53.398;6.564;2024-02-15T02:20:54;13.80;91.90
53962;DHT22;39868;53.398;6.564;2024-02-15T02:23:26;13.80;91.90
53962;DHT22;39868;53.398;6.564;2024-02-15T02:25:56;13.80;91.90
53962;DHT22;39868;53.398;6.564;2024-02-15T02:28:23;13.80;91.90
53962;DHT22;39868;53.398;6.564;2024-02-15T02:30:51;13.90;91.90
53962;DHT22;39868;53.398;6.564;2024-02-15T02:33:18;13.80;91.90
53962;DHT22;39868;53.398;6.564;2024-02-15T02:35:47;13.80;91.90
53962;DHT22;39868;53.398;6.564;2024-02-15T02:38:15;13.80;91.90
53962;DHT22;39868;53.398;6.564;2024-02-15T02:40:43;13.80;91.90
53962;DHT22;39868;53.398;6.564;2024-02-15T02:43:10;13.80;91.80
53962;DHT22;39868;53.398;6.564;2024-02-15T02:45:38;13.80;91.90
53962;DHT22;39868;53.398;6.564;2024-02-15T02:48:05;13.90;91.90
53962;DHT22;39868;53.398;6.564;2024-02-15T02:50:34;13.90;91.90
53962;DHT22;39868;53.398;6.564;2024-02-15T02:53:01;13.80;91.90
53962;DHT22;39868;53.398;6.564;2024-02-15T02:55:29;13.90;91.90
53962;DHT22;39868;53.398;6.564;2024-02-15T02:57:57;13.90;91.90
53962;DHT22;39868;53.398;6.564;2024-02-15T03:00:25;13.90;91.90
53962;DHT22;39868;53.398;6.564;2024-02-15T03:02:52;13.90;91.80
53962;DHT22;39868;53.398;6.564;2024-02-15T03:05:22;13.90;91.80
53962;DHT22;39868;53.398;6.564;2024-02-15T03:07:50;13.90;91.80
53962;DHT22;39868;53.398;6.564;2024-02-15T03:10:19;13.90;91.80
53962;DHT22;39868;53.398;6.564;2024-02-15T03:12:46;13.90;91.80
53962;DHT22;39868;53.398;6.564;2024-02-15T03:15:17;13.90;91.80
53962;DHT22;39868;53.398;6.564;2024-02-15T03:17:46;13.90;91.80
53962;DHT22;39868;53.398;6.564;2024-02-15T03:20:15;13.90;91.80
53962;DHT22;39868;53.398;6.564;2024-02-15T03:22:57;13.90;91.80
53962;DHT22;39868;53.398;6.564;2024-02-15T03:25:25;13.90;91.80
53962;DHT22;39868;53.398;6.564;2024-02-15T03:27:54;13.90;91.80
53962;DHT22;39868;53.398;6.564;2024-02-15T03:30:24;13.80;91.80
53962;DHT22;39868;53.398;6.564;2024-02-15T03:32:52;13.90;91.80
53962;DHT22;39868;53.398;6.564;2024-02-15T03:35:21;13.90;91.80
53962;DHT22;39868;53.398;6.564;2024-02-15T03:37:50;13.90;91.80
53962;DHT22;39868;53.398;6.564;2024-02-15T03:40:22;13.90;91.80
53962;DHT22;39868;53.398;6.564;2024-02-15T03:42:49;13.90;91.80
53962;DHT22;39868;53.398;6.564;2024-02-15T03:45:19;13.90;91.80
53962;DHT22;39868;53.398;6.564;2024-02-15T03:47:47;13.80;91.80
53962;DHT22;39868;53.398;6.564;2024-02-15T03:50:17;13.80;91.80
53962;DHT22;39868;53.398;6.564;2024-02-15T03:52:46;13.90;91.80
53962;DHT22;39868;53.398;6.564;2024-02-15T03:55:13;13.90;91.80
53962;DHT22;39868;53.398;6.564;2024-02-15T03:57:41;13.90;91.80
53962;DHT22;39868;53.398;6.564;2024-02-15T04:00:11;13.90;91.80
53962;DHT22;39868;53.398;6.564;2024-02-15T04:02:40;13.90;91.80
53962;DHT22;39868;53.398;6.564;2024-02-15T04:05:09;13.90;91.80
53962;DHT22;39868;53.398;6.564;2024-02-15T04:07:39;13.90;91.80
53962;DHT22;39868;53.398;6.564;2024-02-15T04:10:08;13.90;91.80
53962;DHT22;39868;53.398;6.564;2024-02-15T04:12:36;13.90;91.90
53962;DHT22;39868;53.398;6.564;2024-02-15T04:15:06;13.90;91.90
53962;DHT22;39868;53.398;6.564;2024-02-15T04:17:40;13.90;91.90
53962;DHT22;39868;53.398;6.564;2024-02-15T04:20:09;13.90;91.90
53962;DHT22;39868;53.398;6.564;2024-02-15T04:22:39;13.90;91.90
53962;DHT22;39868;53.398;6.564;2024-02-15T04:25:10;13.90;91.90
53962;DHT22;39868;53.398;6.564;2024-02-15T04:27:38;13.90;91.90
53962;DHT22;39868;53.398;6.564;2024-02-15T04:30:07;13.90;91.90
53962;DHT22;39868;53.398;6.564;2024-02-15T04:32:38;14.00;91.90
53962;DHT22;39868;53.398;6.564;2024-02-15T04:35:06;14.00;91.90
53962;DHT22;39868;53.398;6.564;2024-02-15T04:37:36;14.00;91.90
53962;DHT22;39868;53.398;6.564;2024-02-15T04:40:05;14.00;91.90
53962;DHT22;39868;53.398;6.564;2024-02-15T04:42:38;14.00;92.00
53962;DHT22;39868;53.398;6.564;2024-02-15T04:45:11;14.00;91.90
53962;DHT22;39868;53.398;6.564;2024-02-15T04:47:44;14.00;91.90
53962;DHT22;39868;53.398;6.564;2024-02-15T04:50:13;14.00;91.90
53962;DHT22;39868;53.398;6.564;2024-02-15T04:52:42;14.10;92.00
53962;DHT22;39868;53.398;6.564;2024-02-15T04:55:12;14.10;92.00
53962;DHT22;39868;53.398;6.564;2024-02-15T04:57:39;14.10;92.00
53962;DHT22;39868;53.398;6.564;2024-02-15T05:00:08;14.10;91.90
53962;DHT22;39868;53.398;6.564;2024-02-15T05:02:39;14.10;91.90
53962;DHT22;39868;53.398;6.564;2024-02-15T05:05:11;14.10;91.90
53962;DHT22;39868;53.398;6.564;2024-02-15T05:07:42;14.10;91.90
53962;DHT22;39868;53.398;6.564;2024-02-15T05:10:10;14.10;91.90
53962;DHT22;39868;53.398;6.564;2024-02-15T05:12:38;14.10;91.90
53962;DHT22;39868;53.398;6.564;2024-02-15T05:15:08;14.10;91.90
53962;DHT22;39868;53.398;6.564;2024-02-15T05:17:40;14.20;91.90
53962;DHT22;39868;53.398;6.564;2024-02-15T05:20:09;14.20;91.90
53962;DHT22;39868;53.398;6.564;2024-02-15T05:22:41;14.20;91.90
53962;DHT22;39868;53.398;6.564;2024-02-15T05:25:19;14.20;91.90
53962;DHT22;39868;53.398;6.564;2024-02-15T05:27:56;14.20;91.90
53962;DHT22;39868;53.398;6.564;2024-02-15T05:30:27;14.20;91.90
53962;DHT22;39868;53.398;6.564;2024-02-15T05:32:56;14.20;91.90
53962;DHT22;39868;53.398;6.564;2024-02-15T05:35:24;14.20;91.90
53962;DHT22;39868;53.398;6.564;2024-02-15T05:37:52;14.20;91.90
53962;DHT22;39868;53.398;6.564;2024-02-15T05:40:23;14.20;91.90
53962;DHT22;39868;53.398;6.564;2024-02-15T05:42:55;14.30;91.90
53962;DHT22;39868;53.398;6.564;2024-02-15T05:47:50;14.20;91.90
53962;DHT22;39868;53.398;6.564;2024-02-15T05:50:17;14.30;91.90
53962;DHT22;39868;53.398;6.564;2024-02-15T05:52:47;14.30;91.90
53962;DHT22;39868;53.398;6.564;2024-02-15T05:55:15;14.30;91.90
53962;DHT22;39868;53.398;6.564;2024-02-15T05:57:44;14.30;91.90
53962;DHT22;39868;53.398;6.564;2024-02-15T06:00:12;14.30;91.90
53962;DHT22;39868;53.398;6.564;2024-02-15T06:02:49;14.30;91.90
53962;DHT22;39868;53.398;6.564;2024-02-15T06:05:18;14.30;91.90
53962;DHT22;39868;53.398;6.564;2024-02-15T06:07:46;14.30;91.90
53962;DHT22;39868;53.398;6.564;2024-02-15T06:10:14;14.30;91.90
53962;DHT22;39868;53.398;6.564;2024-02-15T06:12:42;14.30;91.90
53962;DHT22;39868;53.398;6.564;2024-02-15T06:15:10;14.30;91.90
53962;DHT22;39868;53.398;6.564;2024-02-15T06:17:46;14.40;92.00
53962;DHT22;39868;53.398;6.564;2024-02-15T06:20:15;14.40;92.00
53962;DHT22;39868;53.398;6.564;2024-02-15T06:22:42;14.40;92.00
53962;DHT22;39868;53.398;6.564;2024-02-15T06:25:10;14.40;92.00
53962;DHT22;39868;53.398;6.564;2024-02-15T06:27:38;14.40;91.90
53962;DHT22;39868;53.398;6.564;2024-02-15T06:30:09;14.40;92.00
53962;DHT22;39868;53.398;6.564;2024-02-15T06:32:55;14.40;92.00
53962;DHT22;39868;53.398;6.564;2024-02-15T06:35:41;14.40;92.00
53962;DHT22;39868;53.398;6.564;2024-02-15T06:38:27;14.40;92.00
53962;DHT22;39868;53.398;6.564;2024-02-15T06:41:13;14.40;92.00
53962;DHT22;39868;53.398;6.564;2024-02-15T06:43:40;14.50;92.00
53962;DHT22;39868;53.398;6.564;2024-02-15T06:46:08;14.40;92.00
53962;DHT22;39868;53.398;6.564;2024-02-15T06:48:37;14.50;92.00
53962;DHT22;39868;53.398;6.564;2024-02-15T06:51:05;14.50;92.00
53962;DHT22;39868;53.398;6.564;2024-02-15T06:53:35;14.50;92.00
53962;DHT22;39868;53.398;6.564;2024-02-15T06:56:03;14.50;92.00
53962;DHT22;39868;53.398;6.564;2024-02-15T06:58:30;14.50;92.00
53962;DHT22;39868;53.398;6.564;2024-02-15T07:00:58;14.50;92.00
53962;DHT22;39868;53.398;6.564;2024-02-15T07:03:25;14.50;92.00
53962;DHT22;39868;53.398;6.564;2024-02-15T07:05:52;14.50;92.00
53962;DHT22;39868;53.398;6.564;2024-02-15T07:08:20;14.50;92.00
53962;DHT22;39868;53.398;6.564;2024-02-15T07:10:47;14.50;92.00
53962;DHT22;39868;53.398;6.564;2024-02-15T07:13:14;14.60;92.00
53962;DHT22;39868;53.398;6.564;2024-02-15T07:15:41;14.50;92.00
53962;DHT22;39868;53.398;6.564;2024-02-15T07:18:09;14.60;92.00
53962;DHT22;39868;53.398;6.564;2024-02-15T07:20:37;14.60;92.00
53962;DHT22;39868;53.398;6.564;2024-02-15T07:23:05;14.60;92.00
53962;DHT22;39868;53.398;6.564;2024-02-15T07:25:33;14.60;92.00
53962;DHT22;39868;53.398;6.564;2024-02-15T07:28:00;14.60;92.00
53962;DHT22;39868;53.398;6.564;2024-02-15T07:30:27;14.60;92.00
53962;DHT22;39868;53.398;6.564;2024-02-15T07:32:55;14.60;92.00
53962;DHT22;39868;53.398;6.564;2024-02-15T07:35:22;14.60;92.00
53962;DHT22;39868;53.398;6.564;2024-02-15T07:37:55;14.60;92.00
53962;DHT22;39868;53.398;6.564;2024-02-15T07:40:25;14.60;92.00
53962;DHT22;39868;53.398;6.564;2024-02-15T07:42:57;14.60;92.20
53962;DHT22;39868;53.398;6.564;2024-02-15T07:45:27;14.70;92.00
53962;DHT22;39868;53.398;6.564;2024-02-15T07:47:55;14.70;92.00
53962;DHT22;39868;53.398;6.564;2024-02-15T07:50:22;14.70;92.00
53962;DHT22;39868;53.398;6.564;2024-02-15T07:52:51;14.70;92.00
53962;DHT22;39868;53.398;6.564;2024-02-15T07:55:18;14.70;92.00
53962;DHT22;39868;53.398;6.564;2024-02-15T07:57:46;14.70;92.00
53962;DHT22;39868;53.398;6.564;2024-02-15T08:00:15;14.70;92.00
53962;DHT22;39868;53.398;6.564;2024-02-15T08:02:43;14.70;92.00
53962;DHT22;39868;53.398;6.564;2024-02-15T08:05:12;14.70;92.10
53962;DHT22;39868;53.398;6.564;2024-02-15T08:07:42;14.70;92.10
53962;DHT22;39868;53.398;6.564;2024-02-15T08:10:11;14.70;92.10
53962;DHT22;39868;53.398;6.564;2024-02-15T08:12:43;14.70;92.00
53962;DHT22;39868;53.398;6.564;2024-02-15T08:15:11;14.70;92.00
53962;DHT22;39868;53.398;6.564;2024-02-15T08:17:40;14.70;92.00
53962;DHT22;39868;53.398;6.564;2024-02-15T08:20:10;14.70;92.00
53962;DHT22;39868;53.398;6.564;2024-02-15T08:22:38;14.70;92.10
53962;DHT22;39868;53.398;6.564;2024-02-15T08:25:10;14.80;92.10
53962;DHT22;39868;53.398;6.564;2024-02-15T08:27:39;14.80;92.10
53962;DHT22;39868;53.398;6.564;2024-02-15T08:30:13;14.80;92.10
53962;DHT22;39868;53.398;6.564;2024-02-15T08:32:41;14.80;92.10
53962;DHT22;39868;53.398;6.564;2024-02-15T08:35:10;14.80;92.10
53962;DHT22;39868;53.398;6.564;2024-02-15T08:37:39;14.80;92.10
53962;DHT22;39868;53.398;6.564;2024-02-15T08:40:08;14.80;92.10
53962;DHT22;39868;53.398;6.564;2024-02-15T08:42:44;14.90;92.10
53962;DHT22;39868;53.398;6.564;2024-02-15T08:45:12;14.90;92.10
53962;DHT22;39868;53.398;6.564;2024-02-15T08:47:42;14.80;92.10
53962;DHT22;39868;53.398;6.564;2024-02-15T08:50:10;14.90;92.10
53962;DHT22;39868;53.398;6.564;2024-02-15T08:52:39;14.90;92.10
53962;DHT22;39868;53.398;6.564;2024-02-15T08:55:09;14.90;92.10
53962;DHT22;39868;53.398;6.564;2024-02-15T08:57:37;14.90;92.10
53962;DHT22;39868;53.398;6.564;2024-02-15T09:00:08;14.90;92.10
53962;DHT22;39868;53.398;6.564;2024-02-15T09:02:47;14.90;92.10
53962;DHT22;39868;53.398;6.564;2024-02-15T09:05:16;14.90;92.10
53962;DHT22;39868;53.398;6.564;2024-02-15T09:07:46;15.00;92.10
53962;DHT22;39868;53.398;6.564;2024-02-15T09:10:18;15.00;92.10
53962;DHT22;39868;53.398;6.564;2024-02-15T09:12:46;15.00;92.10
53962;DHT22;39868;53.398;6.564;2024-02-15T09:15:17;15.00;92.10
53962;DHT22;39868;53.398;6.564;2024-02-15T09:17:45;15.00;92.10
53962;DHT22;39868;53.398;6.564;2024-02-15T09:20:15;15.00;92.10
53962;DHT22;39868;53.398;6.564;2024-02-15T09:22:50;15.10;92.10
53962;DHT22;39868;53.398;6.564;2024-02-15T09:25:18;15.10;92.10
53962;DHT22;39868;53.398;6.564;2024-02-15T09:27:46;15.10;92.10
53962;DHT22;39868;53.398;6.564;2024-02-15T09:30:13;15.10;92.10
53962;DHT22;39868;53.398;6.564;2024-02-15T09:32:43;15.10;92.10
53962;DHT22;39868;53.398;6.564;2024-02-15T09:35:11;15.10;92.10
53962;DHT22;39868;53.398;6.564;2024-02-15T09:37:45;15.10;92.10
53962;DHT22;39868;53.398;6.564;2024-02-15T09:40:18;15.10;92.10
53962;DHT22;39868;53.398;6.564;2024-02-15T09:42:47;15.20;92.10
53962;DHT22;39868;53.398;6.564;2024-02-15T09:45:15;15.20;92.10
53962;DHT22;39868;53.398;6.564;2024-02-15T09:47:44;15.20;92.10
53962;DHT22;39868;53.398;6.564;2024-02-15T09:50:14;15.20;92.10
53962;DHT22;39868;53.398;6.564;2024-02-15T09:55:14;15.30;92.10
53962;DHT22;39868;53.398;6.564;2024-02-15T09:57:43;15.30;92.10
53962;DHT22;39868;53.398;6.564;2024-02-15T10:00:11;15.30;92.10
53962;DHT22;39868;53.398;6.564;2024-02-15T10:02:44;15.30;92.10
53962;DHT22;39868;53.398;6.564;2024-02-15T10:05:13;15.40;92.10
53962;DHT22;39868;53.398;6.564;2024-02-15T10:07:44;15.40;92.10
53962;DHT22;39868;53.398;6.564;2024-02-15T10:12:43;15.40;92.10
53962;DHT22;39868;53.398;6.564;2024-02-15T10:15:36;15.50;92.10
53962;DHT22;39868;53.398;6.564;2024-02-15T10:18:06;15.50;92.10
53962;DHT22;39868;53.398;6.564;2024-02-15T10:20:36;15.50;92.10
53962;DHT22;39868;53.398;6.564;2024-02-15T10:23:09;15.50;92.10
53962;DHT22;39868;53.398;6.564;2024-02-15T10:25:37;15.60;92.00
53962;DHT22;39868;53.398;6.564;2024-02-15T10:28:06;15.60;92.00
53962;DHT22;39868;53.398;6.564;2024-02-15T10:30:36;15.60;92.00
53962;DHT22;39868;53.398;6.564;2024-02-15T10:33:04;15.60;92.00
53962;DHT22;39868;53.398;6.564;2024-02-15T10:35:32;15.80;92.00
53962;DHT22;39868;53.398;6.564;2024-02-15T10:38:08;15.70;92.00
53962;DHT22;39868;53.398;6.564;2024-02-15T10:40:40;15.60;91.90
53962;DHT22;39868;53.398;6.564;2024-02-15T10:43:10;15.70;91.90
53962;DHT22;39868;53.398;6.564;2024-02-15T10:45:40;15.70;91.90
53962;DHT22;39868;53.398;6.564;2024-02-15T10:48:11;15.70;91.90
53962;DHT22;39868;53.398;6.564;2024-02-15T10:50:40;15.70;91.90
53962;DHT22;39868;53.398;6.564;2024-02-15T10:53:21;15.70;91.90
53962;DHT22;39868;53.398;6.564;2024-02-15T10:56:05;15.80;91.90
53962;DHT22;39868;53.398;6.564;2024-02-15T10:58:47;15.70;91.80
53962;DHT22;39868;53.398;6.564;2024-02-15T11:01:20;15.70;91.80
53962;DHT22;39868;53.398;6.564;2024-02-15T11:04:07;15.70;91.80
53962;DHT22;39868;53.398;6.564;2024-02-15T11:06:37;15.70;91.80
53962;DHT22;39868;53.398;6.564;2024-02-15T11:09:07;15.70;91.70
53962;DHT22;39868;53.398;6.564;2024-02-15T11:11:35;15.70;91.70
53962;DHT22;39868;53.398;6.564;2024-02-15T11:14:26;15.70;91.70
53962;DHT22;39868;53.398;6.564;2024-02-15T11:16:57;15.70;91.70
53962;DHT22;39868;53.398;6.564;2024-02-15T11:19:40;15.70;91.70
53962;DHT22;39868;53.398;6.564;2024-02-15T11:22:09;15.70;92.00
53962;DHT22;39868;53.398;6.564;2024-02-15T11:24:46;15.70;91.70
53962;DHT22;39868;53.398;6.564;2024-02-15T11:27:28;15.70;91.70
53962;DHT22;39868;53.398;6.564;2024-02-15T11:30:01;15.70;91.70
53962;DHT22;39868;53.398;6.564;2024-02-15T11:32:41;15.70;91.70
53962;DHT22;39868;53.398;6.564;2024-02-15T11:35:19;15.70;91.70
53962;DHT22;39868;53.398;6.564;2024-02-15T11:40:24;15.70;91.70
53962;DHT22;39868;53.398;6.564;2024-02-15T11:42:53;15.70;91.70
53962;DHT22;39868;53.398;6.564;2024-02-15T11:45:21;15.70;91.70
53962;DHT22;39868;53.398;6.564;2024-02-15T11:47:51;15.70;91.60
53962;DHT22;39868;53.398;6.564;2024-02-15T11:50:22;15.70;91.60
53962;DHT22;39868;53.398;6.564;2024-02-15T11:52:51;15.70;91.60
53962;DHT22;39868;53.398;6.564;2024-02-15T11:55:22;15.70;91.60
53962;DHT22;39868;53.398;6.564;2024-02-15T11:58:00;15.80;91.60
53962;DHT22;39868;53.398;6.564;2024-02-15T12:00:38;15.80;91.70
53962;DHT22;39868;53.398;6.564;2024-02-15T12:03:25;15.80;91.70
53962;DHT22;39868;53.398;6.564;2024-02-15T12:06:17;15.80;91.70
53962;DHT22;39868;53.398;6.564;2024-02-15T12:09:03;15.80;91.70
53962;DHT22;39868;53.398;6.564;2024-02-15T12:11:57;15.90;91.80
53962;DHT22;39868;53.398;6.564;2024-02-15T12:14:44;15.90;91.80
53962;DHT22;39868;53.398;6.564;2024-02-15T12:17:30;16.00;91.80
53962;DHT22;39868;53.398;6.564;2024-02-15T12:20:16;16.00;91.80
53962;DHT22;39868;53.398;6.564;2024-02-15T12:22:47;16.00;91.80
53962;DHT22;39868;53.398;6.564;2024-02-15T12:25:16;16.00;91.80
53962;DHT22;39868;53.398;6.564;2024-02-15T12:27:44;16.10;91.80
53962;DHT22;39868;53.398;6.564;2024-02-15T12:30:16;16.10;91.70
53962;DHT22;39868;53.398;6.564;2024-02-15T12:32:48;16.10;91.70
53962;DHT22;39868;53.398;6.564;2024-02-15T12:35:17;16.10;91.70
53962;DHT22;39868;53.398;6.564;2024-02-15T12:38:01;16.10;91.70
53962;DHT22;39868;53.398;6.564;2024-02-15T12:40:33;16.10;91.60
53962;DHT22;39868;53.398;6.564;2024-02-15T12:43:01;16.10;91.60
53962;DHT22;39868;53.398;6.564;2024-02-15T12:45:30;16.10;91.60
53962;DHT22;39868;53.398;6.564;2024-02-15T12:47:57;16.10;91.60
53962;DHT22;39868;53.398;6.564;2024-02-15T12:50:29;16.10;91.60
53962;DHT22;39868;53.398;6.564;2024-02-15T12:52:57;16.10;91.60
53962;DHT22;39868;53.398;6.564;2024-02-15T12:55:32;16.10;91.60
53962;DHT22;39868;53.398;6.564;2024-02-15T12:58:06;16.10;91.60
53962;DHT22;39868;53.398;6.564;2024-02-15T13:00:36;16.10;91.60
53962;DHT22;39868;53.398;6.564;2024-02-15T13:03:08;16.10;91.60
53962;DHT22;39868;53.398;6.564;2024-02-15T13:05:38;16.10;91.60
53962;DHT22;39868;53.398;6.564;2024-02-15T13:08:07;16.10;91.60
53962;DHT22;39868;53.398;6.564;2024-02-15T13:10:41;16.10;91.60
53962;DHT22;39868;53.398;6.564;2024-02-15T13:13:09;16.10;91.60
53962;DHT22;39868;53.398;6.564;2024-02-15T13:15:37;16.10;91.50
53962;DHT22;39868;53.398;6.564;2024-02-15T13:18:06;16.10;91.50
53962;DHT22;39868;53.398;6.564;2024-02-15T13:20:37;16.10;91.50
53962;DHT22;39868;53.398;6.564;2024-02-15T13:23:10;16.00;91.50
53962;DHT22;39868;53.398;6.564;2024-02-15T13:25:53;16.00;91.50
53962;DHT22;39868;53.398;6.564;2024-02-15T13:28:24;16.00;91.50
53962;DHT22;39868;53.398;6.564;2024-02-15T13:30:52;16.00;91.50
53962;DHT22;39868;53.398;6.564;2024-02-15T13:33:23;16.10;91.50
53962;DHT22;39868;53.398;6.564;2024-02-15T13:35:50;16.10;91.50
53962;DHT22;39868;53.398;6.564;2024-02-15T13:38:18;15.90;91.50
53962;DHT22;39868;53.398;6.564;2024-02-15T13:40:51;16.10;91.60
53962;DHT22;39868;53.398;6.564;2024-02-15T13:43:22;16.00;91.50
53962;DHT22;39868;53.398;6.564;2024-02-15T13:45:50;16.10;91.50
53962;DHT22;39868;53.398;6.564;2024-02-15T13:48:18;16.00;91.50
53962;DHT22;39868;53.398;6.564;2024-02-15T13:50:46;16.00;91.50
53962;DHT22;39868;53.398;6.564;2024-02-15T13:53:13;16.00;91.50
53962;DHT22;39868;53.398;6.564;2024-02-15T13:55:41;16.00;91.50
53962;DHT22;39868;53.398;6.564;2024-02-15T13:58:08;16.00;91.50
53962;DHT22;39868;53.398;6.564;2024-02-15T14:00:41;16.00;91.50
53962;DHT22;39868;53.398;6.564;2024-02-15T14:03:11;16.00;91.50
53962;DHT22;39868;53.398;6.564;2024-02-15T14:05:38;16.00;91.50
53962;DHT22;39868;53.398;6.564;2024-02-15T14:08:08;16.00;91.50
53962;DHT22;39868;53.398;6.564;2024-02-15T14:10:39;16.00;91.50
53962;DHT22;39868;53.398;6.564;2024-02-15T14:13:06;16.00;91.50
53962;DHT22;39868;53.398;6.564;2024-02-15T14:15:39;16.00;91.50
53962;DHT22;39868;53.398;6.564;2024-02-15T14:18:15;16.00;91.50
53962;DHT22;39868;53.398;6.564;2024-02-15T14:20:48;16.00;91.50
53962;DHT22;39868;53.398;6.564;2024-02-15T14:23:18;15.90;91.50
53962;DHT22;39868;53.398;6.564;2024-02-15T14:25:50;16.00;91.50
53962;DHT22;39868;53.398;6.564;2024-02-15T14:28:19;16.00;91.50
53962;DHT22;39868;53.398;6.564;2024-02-15T14:30:48;15.90;91.50
53962;DHT22;39868;53.398;6.564;2024-02-15T14:33:34;15.90;91.50
53962;DHT22;39868;53.398;6.564;2024-02-15T14:36:02;15.90;91.50
53962;DHT22;39868;53.398;6.564;2024-02-15T14:38:31;15.90;91.50
53962;DHT22;39868;53.398;6.564;2024-02-15T14:41:02;15.90;91.50
53962;DHT22;39868;53.398;6.564;2024-02-15T14:43:35;15.90;91.60
53962;DHT22;39868;53.398;6.564;2024-02-15T14:46:02;15.90;91.50
53962;DHT22;39868;53.398;6.564;2024-02-15T14:48:32;15.90;91.50
53962;DHT22;39868;53.398;6.564;2024-02-15T14:51:01;15.90;91.50
53962;DHT22;39868;53.398;6.564;2024-02-15T14:53:29;15.90;91.60
53962;DHT22;39868;53.398;6.564;2024-02-15T14:55:56;15.90;91.60
53962;DHT22;39868;53.398;6.564;2024-02-15T14:58:23;15.90;91.60
53962;DHT22;39868;53.398;6.564;2024-02-15T15:00:51;16.00;91.60
53962;DHT22;39868;53.398;6.564;2024-02-15T15:03:30;16.00;91.60
53962;DHT22;39868;53.398;6.564;2024-02-15T15:06:01;16.00;91.60
53962;DHT22;39868;53.398;6.564;2024-02-15T15:08:47;16.00;91.60
53962;DHT22;39868;53.398;6.564;2024-02-15T15:11:32;16.00;91.60
53962;DHT22;39868;53.398;6.564;2024-02-15T15:14:19;16.00;91.60
53962;DHT22;39868;53.398;6.564;2024-02-15T15:16:47;16.00;91.60
53962;DHT22;39868;53.398;6.564;2024-02-15T15:19:15;16.00;91.60
53962;DHT22;39868;53.398;6.564;2024-02-15T15:21:43;16.00;91.60
53962;DHT22;39868;53.398;6.564;2024-02-15T15:24:10;16.00;91.60
53962;DHT22;39868;53.398;6.564;2024-02-15T15:26:38;16.00;91.60
53962;DHT22;39868;53.398;6.564;2024-02-15T15:29:05;16.00;91.60
53962;DHT22;39868;53.398;6.564;2024-02-15T15:31:33;16.00;91.60
53962;DHT22;39868;53.398;6.564;2024-02-15T15:34:02;16.00;91.60
53962;DHT22;39868;53.398;6.564;2024-02-15T15:36:29;16.00;91.60
53962;DHT22;39868;53.398;6.564;2024-02-15T15:38:57;16.00;91.60
53962;DHT22;39868;53.398;6.564;2024-02-15T15:41:24;16.00;91.60
53962;DHT22;39868;53.398;6.564;2024-02-15T15:43:52;16.00;91.60
53962;DHT22;39868;53.398;6.564;2024-02-15T15:46:19;16.00;91.60
53962;DHT22;39868;53.398;6.564;2024-02-15T15:48:46;16.00;91.60
53962;DHT22;39868;53.398;6.564;2024-02-15T15:51:17;16.00;91.60
53962;DHT22;39868;53.398;6.564;2024-02-15T15:53:45;16.00;91.60
53962;DHT22;39868;53.398;6.564;2024-02-15T15:56:14;16.00;91.60
53962;DHT22;39868;53.398;6.564;2024-02-15T15:58:42;16.00;91.50